createdAt,value
2017-08-21T00:00:15.616Z,1015.33
2017-08-21T00:00:56.198Z,1015.36
2017-08-21T00:01:36.818Z,1015.31
2017-08-21T00:02:17.414Z,1015.3
2017-08-21T00:02:58.007Z,1015.29
2017-08-21T00:03:38.572Z,1015.29
2017-08-21T00:04:19.151Z,1015.25
2017-08-21T00:04:59.752Z,1015.25
2017-08-21T00:05:40.349Z,1015.26
2017-08-21T00:06:20.971Z,1015.27
2017-08-21T00:07:01.551Z,1015.24
2017-08-21T00:07:42.114Z,1015.27
2017-08-21T00:08:22.684Z,1015.22
2017-08-21T00:09:03.281Z,1015.21
2017-08-21T00:09:43.852Z,1015.2
2017-08-21T00:10:24.428Z,1015.2
2017-08-21T00:11:05.030Z,1015.2
2017-08-21T00:11:45.613Z,1015.24
2017-08-21T00:12:26.191Z,1015.23
2017-08-21T00:13:06.750Z,1015.24
2017-08-21T00:13:47.322Z,1015.24
2017-08-21T00:14:27.907Z,1015.24
2017-08-21T00:15:08.479Z,1015.23
2017-08-21T00:15:49.035Z,1015.29
2017-08-21T00:16:29.622Z,1015.27
2017-08-21T00:17:10.203Z,1015.28
2017-08-21T00:17:50.806Z,1015.3
2017-08-21T00:18:31.383Z,1015.28
2017-08-21T00:19:11.975Z,1015.3
2017-08-21T00:19:52.553Z,1015.35
2017-08-21T00:20:33.147Z,1015.36
2017-08-21T00:21:13.728Z,1015.32
2017-08-21T00:21:54.327Z,1015.32
2017-08-21T00:22:34.887Z,1015.33
2017-08-21T00:23:15.444Z,1015.37
2017-08-21T00:23:56.028Z,1015.35
2017-08-21T00:24:36.598Z,1015.32
2017-08-21T00:25:17.194Z,1015.32
2017-08-21T00:25:57.768Z,1015.34
2017-08-21T00:26:38.343Z,1015.32
2017-08-21T00:27:18.909Z,1015.35
2017-08-21T00:27:59.492Z,1015.35
2017-08-21T00:28:40.047Z,1015.4
2017-08-21T00:29:20.643Z,1015.36
2017-08-21T00:30:01.199Z,1015.4
2017-08-21T00:30:41.766Z,1015.4
2017-08-21T00:31:22.351Z,1015.39
2017-08-21T00:32:05.651Z,1015.35
2017-08-21T00:32:46.220Z,1015.38
2017-08-21T00:33:26.789Z,1015.4
2017-08-21T00:34:07.366Z,1015.36
2017-08-21T00:34:47.937Z,1015.4
2017-08-21T00:35:28.521Z,1015.38
2017-08-21T00:36:09.087Z,1015.39
2017-08-21T00:36:49.656Z,1015.39
2017-08-21T00:37:30.235Z,1015.38
2017-08-21T00:38:10.834Z,1015.39
2017-08-21T00:38:51.396Z,1015.36
2017-08-21T00:39:31.969Z,1015.38
2017-08-21T00:40:12.550Z,1015.38
2017-08-21T00:40:53.142Z,1015.36
2017-08-21T00:41:33.729Z,1015.36
2017-08-21T00:42:14.329Z,1015.4
2017-08-21T00:42:54.902Z,1015.35
2017-08-21T00:43:35.500Z,1015.41
2017-08-21T00:44:16.055Z,1015.4
2017-08-21T00:44:56.626Z,1015.37
2017-08-21T00:45:37.194Z,1015.41
2017-08-21T00:46:17.758Z,1015.41
2017-08-21T00:46:58.324Z,1015.41
2017-08-21T00:47:38.890Z,1015.37
2017-08-21T00:48:19.466Z,1015.4
2017-08-21T00:49:00.046Z,1015.42
2017-08-21T00:49:40.607Z,1015.43
2017-08-21T00:50:21.171Z,1015.4
2017-08-21T00:51:01.761Z,1015.44
2017-08-21T00:51:42.342Z,1015.41
2017-08-21T00:52:22.906Z,1015.42
2017-08-21T00:53:03.517Z,1015.45
2017-08-21T00:53:44.108Z,1015.44
2017-08-21T00:54:24.696Z,1015.44
2017-08-21T00:55:05.276Z,1015.4
2017-08-21T00:55:45.855Z,1015.38
2017-08-21T00:56:26.416Z,1015.43
2017-08-21T00:57:06.984Z,1015.43
2017-08-21T00:57:47.546Z,1015.39
2017-08-21T00:58:28.117Z,1015.44
2017-08-21T00:59:08.678Z,1015.45
2017-08-21T00:59:49.263Z,1015.46
2017-08-21T01:00:29.825Z,1015.44
2017-08-21T01:01:10.396Z,1015.45
2017-08-21T01:01:50.967Z,1015.47
2017-08-21T01:02:31.545Z,1015.46
2017-08-21T01:03:12.099Z,1015.42
2017-08-21T01:03:52.665Z,1015.42
2017-08-21T01:04:33.259Z,1015.43
2017-08-21T01:05:13.832Z,1015.36
2017-08-21T01:05:54.411Z,1015.49
2017-08-21T01:06:34.975Z,1015.46
2017-08-21T01:07:15.552Z,1015.44
2017-08-21T01:07:56.123Z,1015.47
2017-08-21T01:08:36.683Z,1015.44
2017-08-21T01:09:17.249Z,1015.42
2017-08-21T01:09:57.832Z,1015.42
2017-08-21T01:10:38.408Z,1015.39
2017-08-21T01:11:18.968Z,1015.42
2017-08-21T01:11:59.541Z,1015.44
2017-08-21T01:12:40.102Z,1015.45
2017-08-21T01:13:20.677Z,1015.49
2017-08-21T01:14:01.282Z,1015.48
2017-08-21T01:14:41.856Z,1015.42
2017-08-21T01:15:22.430Z,1015.42
2017-08-21T01:16:02.991Z,1015.4
2017-08-21T01:16:43.584Z,1015.41
2017-08-21T01:17:24.178Z,1015.39
2017-08-21T01:18:04.753Z,1015.35
2017-08-21T01:18:45.321Z,1015.4
2017-08-21T01:19:25.898Z,1015.38
2017-08-21T01:20:06.488Z,1015.46
2017-08-21T01:20:47.080Z,1015.44
2017-08-21T01:21:27.642Z,1015.44
2017-08-21T01:22:08.221Z,1015.45
2017-08-21T01:22:48.790Z,1015.48
2017-08-21T01:23:29.352Z,1015.44
2017-08-21T01:24:09.930Z,1015.42
2017-08-21T01:24:50.509Z,1015.43
2017-08-21T01:25:31.098Z,1015.39
2017-08-21T01:26:11.677Z,1015.4
2017-08-21T01:26:52.236Z,1015.42
2017-08-21T01:27:32.814Z,1015.44
2017-08-21T01:28:13.376Z,1015.45
2017-08-21T01:28:53.943Z,1015.43
2017-08-21T01:29:34.538Z,1015.41
2017-08-21T01:30:15.109Z,1015.37
2017-08-21T01:30:55.678Z,1015.38
2017-08-21T01:31:36.262Z,1015.42
2017-08-21T01:32:16.831Z,1015.36
2017-08-21T01:32:57.404Z,1015.38
2017-08-21T01:33:37.968Z,1015.41
2017-08-21T01:34:18.538Z,1015.43
2017-08-21T01:34:59.114Z,1015.39
2017-08-21T01:35:39.699Z,1015.44
2017-08-21T01:36:20.291Z,1015.44
2017-08-21T01:37:00.858Z,1015.42
2017-08-21T01:37:41.451Z,1015.42
2017-08-21T01:38:22.020Z,1015.4
2017-08-21T01:39:02.606Z,1015.42
2017-08-21T01:39:43.172Z,1015.43
2017-08-21T01:40:23.751Z,1015.41
2017-08-21T01:41:04.321Z,1015.38
2017-08-21T01:41:44.891Z,1015.38
2017-08-21T01:42:25.499Z,1015.43
2017-08-21T01:43:06.061Z,1015.4
2017-08-21T01:43:46.636Z,1015.39
2017-08-21T01:44:27.212Z,1015.38
2017-08-21T01:45:07.780Z,1015.38
2017-08-21T01:45:48.354Z,1015.41
2017-08-21T01:46:28.961Z,1015.36
2017-08-21T01:47:09.532Z,1015.35
2017-08-21T01:47:50.103Z,1015.32
2017-08-21T01:48:30.672Z,1015.33
2017-08-21T01:49:11.240Z,1015.33
2017-08-21T01:49:51.810Z,1015.34
2017-08-21T01:50:32.372Z,1015.33
2017-08-21T01:51:12.939Z,1015.35
2017-08-21T01:51:53.511Z,1015.34
2017-08-21T01:52:34.073Z,1015.31
2017-08-21T01:53:14.632Z,1015.34
2017-08-21T01:53:55.205Z,1015.3
2017-08-21T01:54:35.784Z,1015.31
2017-08-21T01:55:16.345Z,1015.28
2017-08-21T01:55:56.920Z,1015.25
2017-08-21T01:56:37.489Z,1015.23
2017-08-21T01:57:18.054Z,1015.24
2017-08-21T01:57:58.624Z,1015.27
2017-08-21T01:58:39.210Z,1015.22
2017-08-21T01:59:19.772Z,1015.26
2017-08-21T02:00:00.342Z,1015.26
2017-08-21T02:00:40.914Z,1015.28
2017-08-21T02:01:21.491Z,1015.27
2017-08-21T02:02:02.063Z,1015.26
2017-08-21T02:02:42.630Z,1015.27
2017-08-21T02:03:23.200Z,1015.25
2017-08-21T02:04:03.769Z,1015.25
2017-08-21T02:04:44.349Z,1015.22
2017-08-21T02:05:24.940Z,1015.22
2017-08-21T02:06:05.529Z,1015.19
2017-08-21T02:06:46.110Z,1015.14
2017-08-21T02:07:26.673Z,1015.17
2017-08-21T02:08:07.259Z,1015.2
2017-08-21T02:08:47.829Z,1015.14
2017-08-21T02:09:28.393Z,1015.18
2017-08-21T02:10:08.951Z,1015.08
2017-08-21T02:10:49.524Z,1015.15
2017-08-21T02:11:30.109Z,1015.16
2017-08-21T02:12:10.671Z,1015.15
2017-08-21T02:12:51.243Z,1015.17
2017-08-21T02:13:31.805Z,1015.19
2017-08-21T02:14:12.375Z,1015.17
2017-08-21T02:14:52.954Z,1015.16
2017-08-21T02:15:33.564Z,1015.17
2017-08-21T02:16:14.147Z,1015.14
2017-08-21T02:16:54.720Z,1015.19
2017-08-21T02:17:35.296Z,1015.19
2017-08-21T02:18:15.866Z,1015.17
2017-08-21T02:18:56.434Z,1015.2
2017-08-21T02:19:37.013Z,1015.2
2017-08-21T02:20:17.576Z,1015.17
2017-08-21T02:20:58.162Z,1015.2
2017-08-21T02:21:38.747Z,1015.22
2017-08-21T02:22:19.313Z,1015.18
2017-08-21T02:22:59.872Z,1015.17
2017-08-21T02:23:40.446Z,1015.21
2017-08-21T02:24:21.013Z,1015.17
2017-08-21T02:25:01.584Z,1015.21
2017-08-21T02:25:42.154Z,1015.24
2017-08-21T02:26:22.745Z,1015.2
2017-08-21T02:27:03.312Z,1015.19
2017-08-21T02:27:43.890Z,1015.16
2017-08-21T02:28:24.462Z,1015.18
2017-08-21T02:29:05.036Z,1015.2
2017-08-21T02:29:45.619Z,1015.19
2017-08-21T02:30:26.197Z,1015.2
2017-08-21T02:31:06.754Z,1015.18
2017-08-21T02:31:47.332Z,1015.16
2017-08-21T02:32:27.901Z,1015.21
2017-08-21T02:33:08.491Z,1015.18
2017-08-21T02:33:49.052Z,1015.16
2017-08-21T02:34:29.631Z,1015.16
2017-08-21T02:35:10.206Z,1015.23
2017-08-21T02:35:50.780Z,1015.15
2017-08-21T02:36:31.358Z,1015.21
2017-08-21T02:37:11.916Z,1015.15
2017-08-21T02:37:52.507Z,1015.19
2017-08-21T02:38:33.074Z,1015.18
2017-08-21T02:39:13.671Z,1015.16
2017-08-21T02:39:54.243Z,1015.19
2017-08-21T02:40:34.805Z,1015.25
2017-08-21T02:41:15.376Z,1015.18
2017-08-21T02:41:55.965Z,1015.18
2017-08-21T02:42:36.520Z,1015.18
2017-08-21T02:43:17.101Z,1015.18
2017-08-21T02:43:57.667Z,1015.21
2017-08-21T02:44:38.243Z,1015.18
2017-08-21T02:45:18.818Z,1015.2
2017-08-21T02:45:59.400Z,1015.19
2017-08-21T02:46:39.974Z,1015.18
2017-08-21T02:47:20.562Z,1015.23
2017-08-21T02:48:01.125Z,1015.22
2017-08-21T02:48:41.718Z,1015.18
2017-08-21T02:49:22.275Z,1015.21
2017-08-21T02:50:02.839Z,1015.26
2017-08-21T02:50:43.447Z,1015.23
2017-08-21T02:51:24.032Z,1015.25
2017-08-21T02:52:04.601Z,1015.24
2017-08-21T02:52:45.167Z,1015.26
2017-08-21T02:53:25.734Z,1015.22
2017-08-21T02:54:06.303Z,1015.27
2017-08-21T02:54:46.886Z,1015.27
2017-08-21T02:55:27.451Z,1015.27
2017-08-21T02:56:08.027Z,1015.31
2017-08-21T02:56:48.601Z,1015.3
2017-08-21T02:57:29.160Z,1015.24
2017-08-21T02:58:09.724Z,1015.3
2017-08-21T02:58:50.295Z,1015.28
2017-08-21T02:59:30.873Z,1015.33
2017-08-21T03:00:11.438Z,1015.33
2017-08-21T03:00:51.999Z,1015.32
2017-08-21T03:01:32.578Z,1015.29
2017-08-21T03:02:13.160Z,1015.31
2017-08-21T03:02:53.723Z,1015.28
2017-08-21T03:03:34.304Z,1015.31
2017-08-21T03:04:14.885Z,1015.26
2017-08-21T03:04:55.489Z,1015.32
2017-08-21T03:05:36.070Z,1015.35
2017-08-21T03:06:16.638Z,1015.32
2017-08-21T03:06:57.203Z,1015.32
2017-08-21T03:07:37.792Z,1015.31
2017-08-21T03:08:18.395Z,1015.31
2017-08-21T03:08:58.987Z,1015.25
2017-08-21T03:09:39.575Z,1015.27
2017-08-21T03:10:20.149Z,1015.28
2017-08-21T03:11:00.713Z,1015.26
2017-08-21T03:11:41.271Z,1015.27
2017-08-21T03:12:21.842Z,1015.29
2017-08-21T03:13:02.421Z,1015.27
2017-08-21T03:13:43.000Z,1015.27
2017-08-21T03:14:23.562Z,1015.27
2017-08-21T03:15:04.149Z,1015.34
2017-08-21T03:15:44.715Z,1015.3
2017-08-21T03:16:25.287Z,1015.31
2017-08-21T03:17:05.864Z,1015.29
2017-08-21T03:17:46.433Z,1015.32
2017-08-21T03:18:27.007Z,1015.33
2017-08-21T03:19:07.568Z,1015.32
2017-08-21T03:19:48.139Z,1015.31
2017-08-21T03:20:28.722Z,1015.3
2017-08-21T03:21:09.291Z,1015.3
2017-08-21T03:21:49.869Z,1015.26
2017-08-21T03:22:30.445Z,1015.25
2017-08-21T03:23:11.038Z,1015.3
2017-08-21T03:23:51.607Z,1015.3
2017-08-21T03:24:32.190Z,1015.26
2017-08-21T03:25:12.764Z,1015.29
2017-08-21T03:25:53.354Z,1015.23
2017-08-21T03:26:33.922Z,1015.23
2017-08-21T03:27:14.507Z,1015.25
2017-08-21T03:27:55.077Z,1015.27
2017-08-21T03:28:35.647Z,1015.24
2017-08-21T03:29:16.224Z,1015.22
2017-08-21T03:29:56.794Z,1015.21
2017-08-21T03:30:37.366Z,1015.23
2017-08-21T03:31:17.947Z,1015.17
2017-08-21T03:31:58.537Z,1015.21
2017-08-21T03:32:39.094Z,1015.23
2017-08-21T03:33:19.677Z,1015.22
2017-08-21T03:34:00.260Z,1015.2
2017-08-21T03:34:40.836Z,1015.22
2017-08-21T03:35:21.412Z,1015.19
2017-08-21T03:36:01.977Z,1015.18
2017-08-21T03:36:42.541Z,1015.25
2017-08-21T03:37:23.120Z,1015.22
2017-08-21T03:38:03.684Z,1015.18
2017-08-21T03:38:44.264Z,1015.24
2017-08-21T03:39:24.843Z,1015.21
2017-08-21T03:40:05.417Z,1015.24
2017-08-21T03:40:46.002Z,1015.29
2017-08-21T03:41:26.588Z,1015.26
2017-08-21T03:42:07.156Z,1015.29
2017-08-21T03:42:47.728Z,1015.27
2017-08-21T03:43:28.287Z,1015.27
2017-08-21T03:44:08.850Z,1015.26
2017-08-21T03:44:49.430Z,1015.24
2017-08-21T03:45:30.024Z,1015.24
2017-08-21T03:46:10.563Z,1015.22
2017-08-21T03:46:51.123Z,1015.17
2017-08-21T03:47:31.695Z,1015.22
2017-08-21T03:48:12.270Z,1015.21
2017-08-21T03:48:52.849Z,1015.24
2017-08-21T03:49:33.427Z,1015.27
2017-08-21T03:50:14.014Z,1015.21
2017-08-21T03:50:54.575Z,1015.22
2017-08-21T03:51:35.146Z,1015.24
2017-08-21T03:52:15.740Z,1015.22
2017-08-21T03:52:56.325Z,1015.22
2017-08-21T03:53:36.901Z,1015.23
2017-08-21T03:54:17.479Z,1015.2
2017-08-21T03:54:58.049Z,1015.23
2017-08-21T03:55:38.630Z,1015.2
2017-08-21T03:56:19.215Z,1015.24
2017-08-21T03:56:59.780Z,1015.19
2017-08-21T03:57:40.359Z,1015.19
2017-08-21T03:58:20.925Z,1015.22
2017-08-21T03:59:01.489Z,1015.24
2017-08-21T03:59:42.059Z,1015.19
2017-08-21T04:00:22.633Z,1015.29
2017-08-21T04:01:03.205Z,1015.24
2017-08-21T04:01:43.765Z,1015.25
2017-08-21T04:02:24.341Z,1015.25
2017-08-21T04:03:04.923Z,1015.28
2017-08-21T04:03:45.488Z,1015.23
2017-08-21T04:04:26.069Z,1015.24
2017-08-21T04:05:06.637Z,1015.25
2017-08-21T04:05:47.194Z,1015.24
2017-08-21T04:06:27.776Z,1015.24
2017-08-21T04:07:08.335Z,1015.25
2017-08-21T04:07:48.912Z,1015.23
2017-08-21T04:08:29.495Z,1015.26
2017-08-21T04:09:10.061Z,1015.21
2017-08-21T04:09:50.643Z,1015.25
2017-08-21T04:10:31.218Z,1015.21
2017-08-21T04:11:11.780Z,1015.22
2017-08-21T04:11:52.348Z,1015.22
2017-08-21T04:12:32.920Z,1015.26
2017-08-21T04:13:13.483Z,1015.23
2017-08-21T04:13:54.055Z,1015.23
2017-08-21T04:14:34.627Z,1015.27
2017-08-21T04:15:15.212Z,1015.28
2017-08-21T04:15:55.805Z,1015.25
2017-08-21T04:16:36.369Z,1015.26
2017-08-21T04:17:16.937Z,1015.26
2017-08-21T04:17:57.504Z,1015.29
2017-08-21T04:18:38.089Z,1015.32
2017-08-21T04:19:18.668Z,1015.3
2017-08-21T04:19:59.240Z,1015.28
2017-08-21T04:20:39.820Z,1015.31
2017-08-21T04:21:20.420Z,1015.31
2017-08-21T04:22:00.990Z,1015.29
2017-08-21T04:22:41.555Z,1015.29
2017-08-21T04:23:22.119Z,1015.3
2017-08-21T04:24:02.707Z,1015.29
2017-08-21T04:24:43.293Z,1015.3
2017-08-21T04:25:23.859Z,1015.34
2017-08-21T04:26:04.425Z,1015.3
2017-08-21T04:26:44.993Z,1015.32
2017-08-21T04:27:25.551Z,1015.33
2017-08-21T04:28:06.134Z,1015.34
2017-08-21T04:28:46.731Z,1015.38
2017-08-21T04:29:27.286Z,1015.33
2017-08-21T04:30:07.855Z,1015.41
2017-08-21T04:30:48.424Z,1015.36
2017-08-21T04:31:29.031Z,1015.41
2017-08-21T04:32:09.608Z,1015.4
2017-08-21T04:32:50.180Z,1015.41
2017-08-21T04:33:30.767Z,1015.4
2017-08-21T04:34:11.333Z,1015.39
2017-08-21T04:34:51.900Z,1015.43
2017-08-21T04:35:32.477Z,1015.42
2017-08-21T04:36:13.053Z,1015.4
2017-08-21T04:36:53.633Z,1015.41
2017-08-21T04:37:34.185Z,1015.44
2017-08-21T04:38:14.748Z,1015.42
2017-08-21T04:38:55.324Z,1015.47
2017-08-21T04:39:35.887Z,1015.42
2017-08-21T04:40:16.445Z,1015.43
2017-08-21T04:40:57.020Z,1015.47
2017-08-21T04:41:37.606Z,1015.45
2017-08-21T04:42:18.192Z,1015.49
2017-08-21T04:42:58.758Z,1015.48
2017-08-21T04:43:39.339Z,1015.47
2017-08-21T04:44:19.911Z,1015.42
2017-08-21T04:45:00.484Z,1015.44
2017-08-21T04:45:41.068Z,1015.44
2017-08-21T04:46:21.641Z,1015.46
2017-08-21T04:47:02.219Z,1015.45
2017-08-21T04:47:42.784Z,1015.47
2017-08-21T04:48:23.364Z,1015.46
2017-08-21T04:49:03.948Z,1015.46
2017-08-21T04:49:44.524Z,1015.44
2017-08-21T04:50:25.086Z,1015.43
2017-08-21T04:51:05.648Z,1015.47
2017-08-21T04:51:46.231Z,1015.45
2017-08-21T04:52:26.794Z,1015.51
2017-08-21T04:53:07.384Z,1015.49
2017-08-21T04:53:47.974Z,1015.51
2017-08-21T04:54:28.547Z,1015.49
2017-08-21T04:55:09.116Z,1015.5
2017-08-21T04:55:49.713Z,1015.52
2017-08-21T04:56:30.284Z,1015.49
2017-08-21T04:57:10.876Z,1015.47
2017-08-21T04:57:51.450Z,1015.49
2017-08-21T04:58:32.021Z,1015.51
2017-08-21T04:59:12.586Z,1015.52
2017-08-21T04:59:53.160Z,1015.43
2017-08-21T05:00:33.735Z,1015.47
2017-08-21T05:01:14.310Z,1015.48
2017-08-21T05:01:54.897Z,1015.47
2017-08-21T05:02:35.478Z,1015.5
2017-08-21T05:03:16.055Z,1015.48
2017-08-21T05:03:56.651Z,1015.48
2017-08-21T05:04:37.228Z,1015.48
2017-08-21T05:05:17.793Z,1015.49
2017-08-21T05:05:58.360Z,1015.49
2017-08-21T05:06:38.926Z,1015.45
2017-08-21T05:07:19.496Z,1015.44
2017-08-21T05:08:00.057Z,1015.46
2017-08-21T05:08:40.638Z,1015.47
2017-08-21T05:09:21.237Z,1015.51
2017-08-21T05:10:01.815Z,1015.47
2017-08-21T05:10:42.396Z,1015.48
2017-08-21T05:11:22.964Z,1015.53
2017-08-21T05:12:03.536Z,1015.48
2017-08-21T05:12:44.103Z,1015.53
2017-08-21T05:13:24.689Z,1015.49
2017-08-21T05:14:05.262Z,1015.49
2017-08-21T05:14:45.834Z,1015.49
2017-08-21T05:15:26.402Z,1015.52
2017-08-21T05:16:06.982Z,1015.5
2017-08-21T05:16:47.565Z,1015.5
2017-08-21T05:17:28.137Z,1015.53
2017-08-21T05:18:08.712Z,1015.52
2017-08-21T05:18:49.288Z,1015.53
2017-08-21T05:19:29.881Z,1015.53
2017-08-21T05:20:10.448Z,1015.49
2017-08-21T05:20:51.020Z,1015.49
2017-08-21T05:21:31.596Z,1015.5
2017-08-21T05:22:12.168Z,1015.49
2017-08-21T05:22:52.745Z,1015.46
2017-08-21T05:23:33.307Z,1015.5
2017-08-21T05:24:13.879Z,1015.49
2017-08-21T05:24:54.478Z,1015.52
2017-08-21T05:25:35.049Z,1015.51
2017-08-21T05:26:15.610Z,1015.46
2017-08-21T05:26:56.177Z,1015.56
2017-08-21T05:27:36.767Z,1015.55
2017-08-21T05:28:17.325Z,1015.55
2017-08-21T05:28:57.902Z,1015.53
2017-08-21T05:29:38.466Z,1015.54
2017-08-21T05:30:19.041Z,1015.55
2017-08-21T05:30:59.617Z,1015.53
2017-08-21T05:31:40.181Z,1015.57
2017-08-21T05:32:20.752Z,1015.52
2017-08-21T05:33:01.367Z,1015.53
2017-08-21T05:33:41.938Z,1015.5
2017-08-21T05:34:22.508Z,1015.5
2017-08-21T05:35:03.074Z,1015.49
2017-08-21T05:35:43.638Z,1015.53
2017-08-21T05:36:24.209Z,1015.53
2017-08-21T05:37:04.769Z,1015.55
2017-08-21T05:37:45.328Z,1015.52
2017-08-21T05:38:25.907Z,1015.55
2017-08-21T05:39:06.483Z,1015.59
2017-08-21T05:39:47.061Z,1015.58
2017-08-21T05:40:27.645Z,1015.59
2017-08-21T05:41:08.227Z,1015.57
2017-08-21T05:41:48.823Z,1015.58
2017-08-21T05:42:29.429Z,1015.6
2017-08-21T05:43:10.039Z,1015.61
2017-08-21T05:43:50.605Z,1015.61
2017-08-21T05:44:31.171Z,1015.6
2017-08-21T05:45:11.758Z,1015.6
2017-08-21T05:45:52.320Z,1015.57
2017-08-21T05:46:32.890Z,1015.59
2017-08-21T05:47:13.466Z,1015.63
2017-08-21T05:47:54.055Z,1015.61
2017-08-21T05:48:34.627Z,1015.62
2017-08-21T05:49:15.208Z,1015.62
2017-08-21T05:49:55.792Z,1015.68
2017-08-21T05:50:36.350Z,1015.68
2017-08-21T05:51:16.927Z,1015.66
2017-08-21T05:51:57.491Z,1015.67
2017-08-21T05:52:38.065Z,1015.66
2017-08-21T05:53:18.656Z,1015.69
2017-08-21T05:53:59.221Z,1015.67
2017-08-21T05:54:39.789Z,1015.73
2017-08-21T05:55:20.360Z,1015.73
2017-08-21T05:56:00.944Z,1015.76
2017-08-21T05:56:41.520Z,1015.72
2017-08-21T05:57:22.104Z,1015.7
2017-08-21T05:58:02.667Z,1015.78
2017-08-21T05:58:43.265Z,1015.74
2017-08-21T05:59:23.842Z,1015.75
2017-08-21T06:00:04.428Z,1015.73
2017-08-21T06:00:44.993Z,1015.75
2017-08-21T06:01:25.559Z,1015.78
2017-08-21T06:02:06.132Z,1015.76
2017-08-21T06:02:46.697Z,1015.73
2017-08-21T06:03:27.270Z,1015.73
2017-08-21T06:04:07.853Z,1015.75
2017-08-21T06:04:48.438Z,1015.81
2017-08-21T06:05:29.010Z,1015.82
2017-08-21T06:06:09.570Z,1015.77
2017-08-21T06:06:50.153Z,1015.78
2017-08-21T06:07:30.709Z,1015.83
2017-08-21T06:08:11.285Z,1015.77
2017-08-21T06:08:51.863Z,1015.82
2017-08-21T06:09:32.428Z,1015.82
2017-08-21T06:10:13.004Z,1015.8
2017-08-21T06:10:53.585Z,1015.79
2017-08-21T06:11:34.158Z,1015.79
2017-08-21T06:12:14.730Z,1015.78
2017-08-21T06:12:55.326Z,1015.78
2017-08-21T06:13:35.900Z,1015.78
2017-08-21T06:14:16.478Z,1015.78
2017-08-21T06:14:57.072Z,1015.76
2017-08-21T06:15:37.653Z,1015.78
2017-08-21T06:16:18.244Z,1015.76
2017-08-21T06:16:58.829Z,1015.76
2017-08-21T06:17:39.415Z,1015.78
2017-08-21T06:18:19.993Z,1015.81
2017-08-21T06:19:00.563Z,1015.74
2017-08-21T06:19:41.161Z,1015.79
2017-08-21T06:20:21.745Z,1015.76
2017-08-21T06:21:02.338Z,1015.76
2017-08-21T06:21:42.923Z,1015.75
2017-08-21T06:22:23.503Z,1015.75
2017-08-21T06:23:04.092Z,1015.72
2017-08-21T06:23:44.647Z,1015.74
2017-08-21T06:24:25.221Z,1015.74
2017-08-21T06:25:05.788Z,1015.72
2017-08-21T06:25:46.362Z,1015.69
2017-08-21T06:26:26.947Z,1015.76
2017-08-21T06:27:07.529Z,1015.76
2017-08-21T06:27:48.116Z,1015.78
2017-08-21T06:28:28.699Z,1015.82
2017-08-21T06:29:09.285Z,1015.81
2017-08-21T06:29:49.857Z,1015.83
2017-08-21T06:30:30.423Z,1015.83
2017-08-21T06:31:11.001Z,1015.89
2017-08-21T06:31:51.556Z,1015.82
2017-08-21T06:32:32.163Z,1015.84
2017-08-21T06:33:12.732Z,1015.88
2017-08-21T06:33:53.315Z,1015.88
2017-08-21T06:34:33.894Z,1015.89
2017-08-21T06:35:14.482Z,1015.86
2017-08-21T06:35:55.053Z,1015.89
2017-08-21T06:36:35.619Z,1015.89
2017-08-21T06:37:16.195Z,1015.92
2017-08-21T06:37:56.761Z,1015.94
2017-08-21T06:38:37.334Z,1015.91
2017-08-21T06:39:17.916Z,1015.93
2017-08-21T06:39:58.500Z,1015.93
2017-08-21T06:40:39.087Z,1015.93
2017-08-21T06:41:19.689Z,1016
2017-08-21T06:42:00.247Z,1015.9
2017-08-21T06:42:40.822Z,1015.92
2017-08-21T06:43:21.423Z,1015.91
2017-08-21T06:44:01.976Z,1015.96
2017-08-21T06:44:42.545Z,1015.96
2017-08-21T06:45:23.100Z,1015.95
2017-08-21T06:46:03.684Z,1015.94
2017-08-21T06:46:44.422Z,1015.94
2017-08-21T06:47:25.001Z,1015.92
2017-08-21T06:48:05.573Z,1015.95
2017-08-21T06:48:46.149Z,1015.98
2017-08-21T06:49:26.724Z,1015.96
2017-08-21T06:50:07.286Z,1015.96
2017-08-21T06:50:47.853Z,1015.95
2017-08-21T06:51:28.432Z,1015.93
2017-08-21T06:52:09.005Z,1015.95
2017-08-21T06:52:49.577Z,1015.95
2017-08-21T06:53:30.156Z,1015.93
2017-08-21T06:54:10.726Z,1016.02
2017-08-21T06:54:51.299Z,1015.99
2017-08-21T06:55:31.879Z,1015.96
2017-08-21T06:56:12.449Z,1016.02
2017-08-21T06:56:53.028Z,1015.9
2017-08-21T06:57:33.605Z,1015.9
2017-08-21T06:58:14.192Z,1015.89
2017-08-21T06:58:54.756Z,1015.91
2017-08-21T06:59:35.322Z,1015.92
2017-08-21T07:00:15.882Z,1015.96
2017-08-21T07:00:56.448Z,1015.97
2017-08-21T07:01:37.024Z,1015.97
2017-08-21T07:02:17.594Z,1015.97
2017-08-21T07:02:58.169Z,1015.93
2017-08-21T07:03:38.741Z,1015.92
2017-08-21T07:04:19.319Z,1015.93
2017-08-21T07:04:59.895Z,1015.91
2017-08-21T07:05:40.470Z,1015.88
2017-08-21T07:06:21.038Z,1015.95
2017-08-21T07:07:01.613Z,1015.91
2017-08-21T07:07:42.197Z,1015.91
2017-08-21T07:08:22.772Z,1015.94
2017-08-21T07:09:03.351Z,1015.89
2017-08-21T07:09:43.922Z,1015.89
2017-08-21T07:10:24.493Z,1015.91
2017-08-21T07:11:05.095Z,1015.89
2017-08-21T07:11:45.672Z,1015.94
2017-08-21T07:12:26.256Z,1015.94
2017-08-21T07:13:06.838Z,1015.98
2017-08-21T07:13:47.424Z,1016
2017-08-21T07:14:28.008Z,1015.98
2017-08-21T07:15:08.572Z,1015.94
2017-08-21T07:15:49.130Z,1015.98
2017-08-21T07:16:29.710Z,1015.91
2017-08-21T07:17:10.278Z,1015.95
2017-08-21T07:17:50.857Z,1015.91
2017-08-21T07:18:31.423Z,1015.98
2017-08-21T07:19:11.985Z,1015.97
2017-08-21T07:19:52.566Z,1015.95
2017-08-21T07:20:33.133Z,1015.9
2017-08-21T07:21:13.735Z,1015.94
2017-08-21T07:21:54.295Z,1015.96
2017-08-21T07:22:34.866Z,1015.95
2017-08-21T07:23:15.441Z,1015.97
2017-08-21T07:23:56.002Z,1015.97
2017-08-21T07:24:36.567Z,1015.94
2017-08-21T07:25:17.134Z,1016
2017-08-21T07:25:57.696Z,1015.96
2017-08-21T07:26:38.271Z,1015.97
2017-08-21T07:27:18.847Z,1016.07
2017-08-21T07:27:59.429Z,1016.01
2017-08-21T07:28:40.052Z,1015.99
2017-08-21T07:29:20.617Z,1016.04
2017-08-21T07:30:01.177Z,1016.02
2017-08-21T07:30:41.757Z,1016.01
2017-08-21T07:31:22.314Z,1016.05
2017-08-21T07:32:02.883Z,1016.03
2017-08-21T07:32:43.460Z,1016.03
2017-08-21T07:33:24.028Z,1015.99
2017-08-21T07:34:04.598Z,1016.04
2017-08-21T07:34:45.169Z,1016.02
2017-08-21T07:35:25.731Z,1016.03
2017-08-21T07:36:06.295Z,1016
2017-08-21T07:36:46.858Z,1016.04
2017-08-21T07:37:27.430Z,1015.98
2017-08-21T07:38:08.009Z,1016.06
2017-08-21T07:38:48.595Z,1016.01
2017-08-21T07:39:29.170Z,1016.05
2017-08-21T07:40:09.736Z,1016.03
2017-08-21T07:40:50.313Z,1016.01
2017-08-21T07:41:30.891Z,1016
2017-08-21T07:42:11.464Z,1016.01
2017-08-21T07:42:52.030Z,1016
2017-08-21T07:43:32.600Z,1016.03
2017-08-21T07:44:13.185Z,1016.05
2017-08-21T07:44:53.760Z,1016.05
2017-08-21T07:45:34.316Z,1016.05
2017-08-21T07:46:14.883Z,1016.05
2017-08-21T07:46:55.446Z,1016.05
2017-08-21T07:47:36.050Z,1016.06
2017-08-21T07:48:16.614Z,1016.03
2017-08-21T07:48:57.183Z,1016.03
2017-08-21T07:49:37.751Z,1016.05
2017-08-21T07:50:18.310Z,1016.04
2017-08-21T07:50:58.875Z,1016.02
2017-08-21T07:51:39.444Z,1016.04
2017-08-21T07:52:20.013Z,1016
2017-08-21T07:53:00.578Z,1016.06
2017-08-21T07:53:41.141Z,1016.06
2017-08-21T07:54:21.716Z,1016.04
2017-08-21T07:55:02.293Z,1016.06
2017-08-21T07:55:42.863Z,1016.13
2017-08-21T07:56:23.432Z,1016.06
2017-08-21T07:57:04.000Z,1016.04
2017-08-21T07:57:44.568Z,1016.03
2017-08-21T07:58:25.141Z,1016.09
2017-08-21T07:59:05.730Z,1016.09
2017-08-21T07:59:46.300Z,1016.21
2017-08-21T08:00:26.864Z,1016.13
2017-08-21T08:01:07.447Z,1016.2
2017-08-21T08:01:48.013Z,1016
2017-08-21T08:02:28.588Z,1016.04
2017-08-21T08:03:09.177Z,1015.98
2017-08-21T08:03:49.743Z,1016.14
2017-08-21T08:04:30.311Z,1016.13
2017-08-21T08:05:10.902Z,1016.04
2017-08-21T08:05:51.490Z,1016.07
2017-08-21T08:06:32.075Z,1016.16
2017-08-21T08:07:12.676Z,1016.14
2017-08-21T08:07:53.261Z,1016.05
2017-08-21T08:08:33.840Z,1016.08
2017-08-21T08:09:14.407Z,1016.1
2017-08-21T08:09:54.975Z,1016.16
2017-08-21T08:10:35.564Z,1016.07
2017-08-21T08:11:16.139Z,1016.08
2017-08-21T08:11:56.718Z,1016.07
2017-08-21T08:12:37.288Z,1016